createdAt,value
2023-01-04T00:00:00.896Z,78.41
2023-01-04T00:02:31.072Z,78.31
2023-01-04T00:05:01.482Z,78.45
2023-01-04T00:07:32.439Z,78.50
2023-01-04T00:10:02.758Z,78.57
2023-01-04T00:12:32.957Z,78.55
2023-01-04T00:15:03.162Z,78.36
2023-01-04T00:17:33.431Z,78.83
2023-01-04T00:20:03.936Z,78.29
2023-01-04T00:22:37.580Z,78.49
2023-01-04T00:25:08.278Z,78.58
2023-01-04T00:27:38.479Z,78.80
2023-01-04T00:30:09.249Z,78.88
2023-01-04T00:32:39.762Z,78.82
2023-01-04T00:35:09.452Z,77.53
2023-01-04T00:37:41.053Z,78.58
2023-01-04T00:40:12.055Z,78.67
2023-01-04T00:42:42.350Z,78.10
2023-01-04T00:45:12.710Z,78.15
2023-01-04T00:47:42.907Z,78.04
2023-01-04T00:50:14.281Z,78.12
2023-01-04T00:52:44.505Z,78.71
2023-01-04T00:55:14.814Z,78.25
2023-01-04T00:57:44.995Z,78.02
2023-01-04T01:00:16.272Z,78.57
2023-01-04T01:02:46.561Z,79.03
2023-01-04T01:05:17.006Z,78.61
2023-01-04T01:07:46.657Z,78.35
2023-01-04T01:10:16.590Z,79.01
2023-01-04T01:12:46.723Z,79.34
2023-01-04T01:15:16.857Z,79.08
2023-01-04T01:17:47.025Z,79.54
2023-01-04T01:20:17.516Z,79.66
2023-01-04T01:22:47.667Z,79.79
2023-01-04T01:25:17.469Z,78.88
2023-01-04T01:27:47.460Z,79.76
2023-01-04T01:30:17.708Z,79.94
2023-01-04T01:32:47.702Z,80.26
2023-01-04T01:35:17.769Z,80.06
2023-01-04T01:37:47.824Z,80.10
2023-01-04T01:40:18.037Z,80.42
2023-01-04T01:42:48.269Z,80.64
2023-01-04T01:45:26.853Z,79.52
2023-01-04T01:48:05.834Z,80.29
2023-01-04T01:50:42.997Z,80.50
2023-01-04T01:53:13.767Z,80.85
2023-01-04T01:55:46.616Z,81.10
2023-01-04T01:58:32.323Z,81.55
2023-01-04T02:01:03.514Z,81.12
2023-01-04T02:03:41.456Z,81.25
2023-01-04T02:06:20.453Z,81.38
2023-01-04T02:08:51.275Z,81.53
2023-01-04T02:11:21.629Z,81.29
2023-01-04T02:14:10.980Z,81.47
2023-01-04T02:16:59.192Z,81.66
2023-01-04T02:20:11.893Z,81.72
2023-01-04T02:23:19.690Z,81.23
2023-01-04T02:26:07.825Z,81.77
2023-01-04T02:28:55.994Z,81.58
2023-01-04T02:31:44.368Z,81.84
2023-01-04T02:34:38.777Z,81.68
2023-01-04T02:37:11.845Z,82.53
2023-01-04T02:40:06.350Z,82.00
2023-01-04T02:43:13.856Z,82.48
2023-01-04T02:45:59.557Z,82.52
2023-01-04T02:48:58.450Z,82.91
2023-01-04T02:51:36.953Z,82.91
2023-01-04T02:54:15.243Z,83.32
2023-01-04T02:57:14.957Z,82.74
2023-01-04T02:59:54.709Z,83.12
2023-01-04T03:03:03.936Z,83.44
2023-01-04T03:06:18.374Z,82.90
2023-01-04T03:09:07.855Z,83.48
2023-01-04T03:12:05.376Z,83.66
2023-01-04T03:14:49.615Z,83.54
2023-01-04T03:17:24.042Z,83.60
2023-01-04T03:19:56.654Z,83.85
2023-01-04T03:22:53.566Z,83.97
2023-01-04T03:25:54.015Z,83.48
2023-01-04T03:28:44.432Z,83.22
2023-01-04T03:31:35.053Z,83.34
2023-01-04T03:34:24.502Z,83.38
2023-01-04T03:37:07.131Z,83.97
2023-01-04T03:40:33.010Z,83.07
2023-01-04T03:43:41.907Z,82.96
2023-01-04T03:46:36.196Z,83.05
2023-01-04T03:49:29.630Z,84.15
2023-01-04T03:52:04.982Z,85.00
2023-01-04T03:54:41.166Z,84.79
2023-01-04T03:57:13.105Z,84.59
2023-01-04T04:00:10.724Z,84.73
2023-01-04T04:02:42.909Z,84.58
2023-01-04T04:05:39.546Z,84.39
2023-01-04T04:08:27.888Z,84.27
2023-01-04T04:11:21.539Z,84.17
2023-01-04T04:13:52.726Z,83.79
2023-01-04T04:16:23.028Z,84.09
2023-01-04T04:18:53.397Z,84.37
2023-01-04T04:21:24.116Z,83.78
2023-01-04T04:23:57.468Z,83.70
2023-01-04T04:26:27.898Z,83.68
2023-01-04T04:28:58.133Z,84.08
2023-01-04T04:31:27.842Z,83.69
2023-01-04T04:33:57.908Z,85.39
2023-01-04T04:36:27.676Z,84.52
2023-01-04T04:38:57.489Z,85.48
2023-01-04T04:41:42.493Z,84.29
2023-01-04T04:44:15.962Z,84.82
2023-01-04T04:46:47.365Z,84.82
2023-01-04T04:49:19.030Z,85.24
2023-01-04T04:51:49.915Z,85.87
2023-01-04T04:54:22.916Z,85.54
2023-01-04T04:56:53.108Z,84.99
2023-01-04T04:59:22.734Z,84.23
2023-01-04T05:01:53.262Z,84.89
2023-01-04T05:04:23.759Z,85.23
2023-01-04T05:06:54.294Z,85.23
2023-01-04T05:09:24.473Z,85.29
2023-01-04T05:12:32.024Z,85.03
2023-01-04T05:15:02.219Z,85.52
2023-01-04T05:17:32.392Z,85.68
2023-01-04T05:20:02.699Z,85.38
2023-01-04T05:22:33.043Z,85.36
2023-01-04T05:25:03.328Z,85.21
2023-01-04T05:27:33.608Z,85.27
2023-01-04T05:30:21.525Z,84.55
2023-01-04T05:32:51.728Z,85.20
2023-01-04T05:35:21.804Z,85.83
2023-01-04T05:37:51.844Z,86.47
2023-01-04T05:40:22.475Z,86.25
2023-01-04T05:42:53.174Z,85.70
2023-01-04T05:45:23.575Z,85.80
2023-01-04T05:47:54.877Z,85.63
2023-01-04T05:50:26.684Z,85.81
2023-01-04T05:52:57.053Z,85.32
2023-01-04T05:55:27.328Z,85.81
2023-01-04T05:57:57.133Z,85.43
2023-01-04T06:00:27.627Z,85.99
2023-01-04T06:02:58.474Z,86.40
2023-01-04T06:05:28.794Z,86.33
2023-01-04T06:07:58.390Z,85.54
2023-01-04T06:10:28.219Z,86.30
2023-01-04T06:12:58.536Z,86.86
2023-01-04T06:15:28.775Z,87.60
2023-01-04T06:17:59.147Z,86.87
2023-01-04T06:20:29.385Z,87.19
2023-01-04T06:22:59.607Z,87.17
2023-01-04T06:25:29.891Z,86.85
2023-01-04T06:27:59.661Z,86.15
2023-01-04T06:30:30.181Z,86.50
2023-01-04T06:33:00.524Z,86.69
2023-01-04T06:35:30.784Z,87.91
2023-01-04T06:38:01.074Z,88.46
2023-01-04T06:40:31.959Z,88.05
2023-01-04T06:43:02.171Z,87.39
2023-01-04T06:45:31.835Z,86.95
2023-01-04T06:48:07.246Z,88.18
2023-01-04T06:50:39.152Z,88.49
2023-01-04T06:53:09.416Z,88.24
2023-01-04T06:55:39.164Z,87.83
2023-01-04T06:58:09.226Z,88.34
2023-01-04T07:00:39.023Z,87.46
2023-01-04T07:03:13.579Z,88.16
2023-01-04T07:05:46.478Z,88.17
2023-01-04T07:08:17.242Z,88.23
2023-01-04T07:10:47.879Z,88.30
2023-01-04T07:13:18.421Z,88.77
2023-01-04T07:15:48.802Z,88.83
2023-01-04T07:18:19.212Z,89.21
2023-01-04T07:20:49.392Z,88.87
2023-01-04T07:23:19.620Z,88.42
2023-01-04T07:25:49.313Z,87.58
2023-01-04T07:28:39.038Z,87.80
2023-01-04T07:31:10.288Z,87.53
2023-01-04T07:33:41.063Z,87.52
2023-01-04T07:36:11.469Z,88.04
2023-01-04T07:38:41.710Z,87.95
2023-01-04T07:41:11.399Z,87.27
2023-01-04T07:43:41.254Z,87.95
2023-01-04T07:46:10.929Z,87.28
2023-01-04T07:48:41.117Z,88.20
2023-01-04T07:51:11.507Z,88.12
2023-01-04T07:53:41.848Z,88.15
2023-01-04T07:56:18.351Z,88.54
2023-01-04T07:58:49.125Z,88.43
2023-01-04T08:01:20.996Z,88.23
2023-01-04T08:03:51.587Z,88.39
2023-01-04T08:06:23.063Z,88.51
2023-01-04T08:08:53.420Z,89.46
2023-01-04T08:11:26.700Z,89.83
2023-01-04T08:13:57.126Z,89.97
2023-01-04T08:16:34.156Z,89.38
2023-01-04T08:19:13.237Z,89.52
2023-01-04T08:21:44.054Z,89.03
2023-01-04T08:24:17.395Z,89.12
2023-01-04T08:26:48.512Z,89.10
2023-01-04T08:29:18.842Z,88.93
2023-01-04T08:31:49.436Z,88.28
2023-01-04T08:34:19.836Z,89.01
2023-01-04T08:36:52.283Z,89.06
2023-01-04T08:39:23.046Z,88.73
2023-01-04T08:42:00.825Z,88.81
2023-01-04T08:44:38.131Z,88.82
2023-01-04T08:47:08.449Z,88.73
2023-01-04T08:49:38.635Z,88.31
2023-01-04T08:52:10.291Z,87.98
2023-01-04T08:54:40.619Z,88.78
2023-01-04T08:57:10.686Z,89.73
2023-01-04T08:59:40.972Z,89.68
2023-01-04T09:02:31.364Z,89.24
2023-01-04T09:05:04.334Z,89.12
2023-01-04T09:07:35.231Z,89.28
2023-01-04T09:10:05.740Z,89.49
2023-01-04T09:12:35.966Z,89.34
2023-01-04T09:15:05.981Z,88.34
2023-01-04T09:17:46.513Z,88.91
2023-01-04T09:20:26.928Z,88.95
2023-01-04T09:23:00.006Z,88.67
2023-01-04T09:25:30.155Z,88.81
2023-01-04T09:27:59.982Z,87.84
2023-01-04T09:30:33.094Z,88.36
2023-01-04T09:33:03.392Z,88.27
2023-01-04T09:35:33.883Z,88.27
2023-01-04T09:38:04.185Z,88.51
2023-01-04T09:41:03.737Z,88.26
2023-01-04T09:43:49.085Z,88.09
2023-01-04T09:46:34.271Z,88.59
2023-01-04T09:49:14.387Z,88.76
2023-01-04T09:51:53.867Z,88.54
2023-01-04T09:57:01.773Z,87.70
2023-01-04T09:59:34.199Z,87.84
2023-01-04T10:02:15.887Z,87.55
2023-01-04T10:04:51.785Z,86.94
2023-01-04T10:07:34.912Z,86.91
2023-01-04T10:10:08.707Z,86.17
2023-01-04T10:13:07.664Z,85.87
2023-01-04T10:15:53.886Z,86.12
2023-01-04T10:21:38.407Z,85.30
2023-01-04T10:24:30.109Z,84.92
2023-01-04T10:27:34.350Z,84.14
2023-01-04T10:30:18.308Z,84.88
2023-01-04T10:32:54.383Z,84.66
2023-01-04T10:35:27.321Z,84.32
2023-01-04T10:38:11.853Z,84.21
2023-01-04T10:40:43.523Z,84.15
2023-01-04T10:44:09.938Z,83.96
2023-01-04T10:46:32.423Z,83.64
2023-01-04T10:49:13.711Z,83.74
2023-01-04T10:52:02.060Z,83.06
2023-01-04T10:54:59.056Z,83.08
2023-01-04T10:57:52.734Z,83.16
2023-01-04T11:00:28.303Z,82.69
2023-01-04T11:03:15.444Z,83.15
2023-01-04T11:06:19.195Z,81.91
2023-01-04T11:09:01.087Z,81.80
2023-01-04T11:11:46.279Z,81.85
2023-01-04T11:14:17.361Z,82.01
2023-01-04T11:16:51.100Z,81.59
2023-01-04T11:19:21.473Z,81.39
2023-01-04T11:22:13.401Z,81.27
2023-01-04T11:25:07.845Z,81.23
2023-01-04T11:27:49.269Z,80.43
2023-01-04T11:30:26.650Z,79.91
2023-01-04T11:33:07.341Z,79.54
2023-01-04T11:35:42.993Z,79.44
2023-01-04T11:38:22.456Z,79.25
2023-01-04T11:41:09.628Z,78.03
2023-01-04T11:43:41.406Z,78.97
2023-01-04T11:46:20.840Z,78.37
2023-01-04T11:48:51.619Z,78.54
2023-01-04T11:51:40.873Z,79.52
2023-01-04T11:54:17.166Z,77.44
2023-01-04T11:57:11.100Z,77.49
2023-01-04T11:59:41.824Z,77.30
2023-01-04T12:03:00.879Z,77.08
2023-01-04T12:05:28.960Z,76.54
2023-01-04T12:08:01.120Z,76.15
2023-01-04T12:10:31.288Z,75.52
2023-01-04T12:13:04.244Z,74.89
2023-01-04T12:15:56.959Z,75.47
2023-01-04T12:18:47.792Z,74.20
2023-01-04T12:21:27.486Z,73.26
2023-01-04T12:23:58.040Z,73.76
2023-01-04T12:26:28.515Z,73.78
2023-01-04T12:29:25.572Z,73.74
2023-01-04T12:32:15.856Z,74.91
2023-01-04T12:34:48.457Z,73.91
2023-01-04T12:37:41.817Z,72.32
2023-01-04T12:40:49.216Z,70.47
2023-01-04T12:43:27.070Z,71.40
2023-01-04T12:46:52.649Z,70.25
2023-01-04T12:49:28.898Z,70.67
2023-01-04T12:55:05.014Z,68.79
2023-01-04T12:57:39.880Z,69.78
2023-01-04T13:00:18.171Z,68.52
2023-01-04T13:03:09.651Z,69.10
2023-01-04T13:05:57.736Z,67.34
2023-01-04T13:08:29.672Z,67.79
2023-01-04T13:11:00.329Z,66.20
2023-01-04T13:13:52.321Z,66.48
2023-01-04T13:16:49.532Z,64.59
2023-01-04T13:19:30.402Z,62.21
2023-01-04T13:22:00.923Z,61.54
2023-01-04T13:24:38.233Z,62.51
2023-01-04T13:27:36.195Z,58.44
2023-01-04T13:30:06.855Z,56.52
2023-01-04T13:33:15.010Z,57.57
2023-01-04T13:35:29.907Z,58.08
2023-01-04T13:38:01.816Z,58.88
2023-01-04T13:40:36.797Z,56.45
2023-01-04T13:43:24.884Z,56.25
2023-01-04T13:46:16.427Z,55.26
2023-01-04T13:48:49.686Z,54.91
2023-01-04T13:51:32.268Z,54.46
2023-01-04T13:54:17.903Z,55.90
2023-01-04T13:59:39.148Z,55.14
2023-01-04T14:02:20.093Z,53.52
2023-01-04T14:04:52.208Z,54.53
2023-01-04T14:07:24.182Z,53.86
2023-01-04T14:10:02.097Z,54.24
2023-01-04T14:12:32.413Z,52.71
2023-01-04T14:15:19.880Z,54.31
2023-01-04T14:17:59.296Z,51.73
2023-01-04T14:20:29.834Z,52.33
2023-01-04T14:23:01.443Z,51.55
2023-01-04T14:25:49.533Z,53.04
2023-01-04T14:28:28.395Z,52.39
2023-01-04T14:31:01.510Z,51.96
2023-01-04T14:33:37.945Z,50.72
2023-01-04T14:36:16.296Z,50.79
2023-01-04T14:38:55.700Z,49.96
2023-01-04T14:41:39.513Z,49.99
2023-01-04T14:44:19.357Z,49.24
2023-01-04T14:46:55.799Z,50.42
2023-01-04T14:49:28.994Z,49.62
2023-01-04T14:52:01.226Z,50.46
2023-01-04T14:54:33.134Z,50.22
2023-01-04T14:57:03.467Z,50.11
2023-01-04T14:59:33.828Z,48.95
2023-01-04T15:02:04.255Z,45.43
2023-01-04T15:04:34.657Z,42.73
2023-01-04T15:07:04.997Z,41.71
2023-01-04T15:09:37.093Z,41.87
2023-01-04T15:12:07.904Z,39.62
2023-01-04T15:14:38.124Z,38.96
2023-01-04T15:17:08.300Z,38.72
2023-01-04T15:19:38.705Z,40.57
2023-01-04T15:22:08.995Z,38.11
2023-01-04T15:24:39.251Z,39.60
2023-01-04T15:27:09.668Z,39.32
2023-01-04T15:29:39.846Z,38.70
2023-01-04T15:32:10.060Z,38.99
2023-01-04T15:34:46.485Z,38.90
2023-01-04T15:37:23.437Z,38.49
2023-01-04T15:39:59.950Z,36.52
2023-01-04T15:42:50.869Z,37.23
2023-01-04T15:45:22.583Z,37.91
2023-01-04T15:47:53.401Z,38.02
2023-01-04T15:50:23.689Z,38.77
2023-01-04T15:52:53.985Z,39.87
2023-01-04T15:55:24.717Z,39.33
2023-01-04T15:57:54.987Z,37.72
2023-01-04T16:00:25.530Z,38.22
2023-01-04T16:02:55.995Z,36.72
2023-01-04T16:05:26.644Z,36.40
2023-01-04T16:07:57.637Z,37.47
2023-01-04T16:10:28.458Z,37.27
2023-01-04T16:12:59.189Z,37.89
2023-01-04T16:15:29.434Z,38.08
2023-01-04T16:17:59.656Z,37.72
2023-01-04T16:20:29.917Z,38.72
2023-01-04T16:23:00.093Z,37.02
2023-01-04T16:25:30.115Z,38.98
2023-01-04T16:28:00.239Z,38.75
2023-01-04T16:30:35.689Z,38.87
2023-01-04T16:33:05.906Z,36.58
2023-01-04T16:35:36.158Z,36.92
2023-01-04T16:38:06.284Z,37.14
2023-01-04T16:40:36.509Z,36.30
2023-01-04T16:43:08.264Z,37.35
2023-01-04T16:45:38.449Z,35.50
2023-01-04T16:48:11.230Z,35.45
2023-01-04T16:50:45.220Z,37.55
2023-01-04T16:53:15.444Z,36.83
2023-01-04T16:55:45.713Z,37.09
2023-01-04T16:58:15.925Z,35.45
2023-01-04T17:00:46.128Z,36.15
2023-01-04T17:03:16.220Z,35.13
2023-01-04T17:05:46.423Z,35.42
2023-01-04T17:08:18.704Z,36.09
2023-01-04T17:10:52.242Z,35.41
2023-01-04T17:13:22.407Z,35.55
2023-01-04T17:15:52.685Z,36.87
2023-01-04T17:18:23.795Z,35.09
2023-01-04T17:21:16.745Z,35.56
2023-01-04T17:23:49.791Z,35.09
2023-01-04T17:26:26.301Z,36.35
2023-01-04T17:28:58.604Z,36.77
2023-01-04T17:31:32.440Z,35.72
2023-01-04T17:34:03.239Z,36.73
2023-01-04T17:36:33.905Z,36.70
2023-01-04T17:39:05.302Z,36.00
2023-01-04T17:41:35.608Z,35.91
2023-01-04T17:44:07.962Z,36.28
2023-01-04T17:46:39.592Z,35.56
2023-01-04T17:49:31.875Z,36.52
2023-01-04T17:52:02.959Z,38.01
2023-01-04T17:54:33.332Z,37.16
2023-01-04T17:57:03.651Z,35.64
2023-01-04T17:59:33.814Z,36.79
2023-01-04T18:02:04.014Z,37.19
2023-01-04T18:04:34.268Z,38.85
2023-01-04T18:07:04.855Z,40.09
2023-01-04T18:09:35.210Z,39.86
2023-01-04T18:12:05.368Z,37.30
2023-01-04T18:14:35.588Z,36.63
2023-01-04T18:17:07.326Z,35.95
2023-01-04T18:19:40.218Z,35.88
2023-01-04T18:22:11.853Z,37.36
2023-01-04T18:24:42.229Z,39.07
2023-01-04T18:27:24.415Z,39.02
2023-01-04T18:29:57.013Z,37.73
2023-01-04T18:32:28.524Z,37.33
2023-01-04T18:34:58.727Z,36.97
2023-01-04T18:37:28.729Z,35.23
2023-01-04T18:39:58.817Z,33.64
2023-01-04T18:42:28.788Z,36.81
2023-01-04T18:44:59.330Z,35.83
2023-01-04T18:47:29.728Z,35.98
2023-01-04T18:49:59.757Z,35.85
2023-01-04T18:52:30.354Z,35.12
2023-01-04T18:55:00.606Z,36.08
2023-01-04T18:57:31.020Z,36.56
2023-01-04T19:00:01.671Z,35.29
2023-01-04T19:02:32.058Z,35.79
2023-01-04T19:05:02.552Z,36.61
2023-01-04T19:07:32.619Z,38.10
2023-01-04T19:10:02.783Z,39.58
2023-01-04T19:12:32.760Z,38.05
2023-01-04T19:15:02.726Z,39.25
2023-01-04T19:17:32.694Z,39.99
2023-01-04T19:20:02.770Z,41.12
2023-01-04T19:22:32.803Z,41.43
2023-01-04T19:25:02.878Z,40.59
2023-01-04T19:27:33.144Z,40.75
2023-01-04T19:30:03.499Z,40.76
2023-01-04T19:32:34.171Z,42.21
2023-01-04T19:35:04.824Z,41.83
2023-01-04T19:37:35.094Z,43.37
2023-01-04T19:40:05.478Z,42.31
2023-01-04T19:42:36.237Z,42.43
2023-01-04T19:45:07.644Z,42.87
2023-01-04T19:47:37.945Z,41.93
2023-01-04T19:50:09.142Z,43.75
2023-01-04T19:52:40.323Z,43.36
2023-01-04T19:55:11.372Z,43.15
2023-01-04T19:57:41.621Z,43.97
2023-01-04T20:00:12.399Z,43.30
2023-01-04T20:02:43.435Z,44.29
2023-01-04T20:05:13.806Z,44.72
2023-01-04T20:07:45.632Z,42.98
2023-01-04T20:10:15.854Z,43.65
2023-01-04T20:12:46.237Z,44.85
2023-01-04T20:15:16.477Z,45.34
2023-01-04T20:17:46.767Z,44.58
2023-01-04T20:20:18.989Z,45.43
2023-01-04T20:22:49.788Z,45.06
2023-01-04T20:25:20.145Z,45.18
2023-01-04T20:27:50.444Z,45.84
2023-01-04T20:30:20.703Z,46.11
2023-01-04T20:32:51.206Z,47.01
2023-01-04T20:35:21.999Z,47.12
2023-01-04T20:37:56.898Z,46.63
2023-01-04T20:40:28.367Z,47.27
2023-01-04T20:43:16.694Z,46.76
2023-01-04T20:45:48.450Z,46.99
2023-01-04T20:48:18.914Z,45.40
2023-01-04T20:50:49.092Z,44.41
2023-01-04T20:53:19.566Z,44.96
2023-01-04T20:55:49.823Z,44.58
2023-01-04T20:58:20.406Z,44.28
2023-01-04T21:00:50.633Z,43.20
2023-01-04T21:03:20.995Z,43.44
2023-01-04T21:05:52.099Z,43.05
2023-01-04T21:08:22.321Z,41.31
2023-01-04T21:10:54.072Z,42.48
2023-01-04T21:13:24.684Z,41.69
2023-01-04T21:15:54.838Z,41.85
2023-01-04T21:18:27.804Z,42.19
2023-01-04T21:20:58.039Z,40.80
2023-01-04T21:23:28.911Z,40.91
2023-01-04T21:25:59.153Z,40.41
2023-01-04T21:28:29.610Z,39.06
2023-01-04T21:30:59.753Z,39.37
2023-01-04T21:33:29.803Z,39.37
2023-01-04T21:35:59.991Z,39.86
2023-01-04T21:38:30.223Z,40.38
2023-01-04T21:41:00.383Z,42.19
2023-01-04T21:43:30.495Z,42.32
2023-01-04T21:45:59.857Z,42.80
2023-01-04T21:48:29.980Z,43.69
2023-01-04T21:51:05.598Z,43.89
2023-01-04T21:53:37.640Z,43.57
2023-01-04T21:56:14.468Z,44.25
2023-01-04T21:58:45.048Z,43.48
2023-01-04T22:01:17.175Z,43.11
2023-01-04T22:03:47.636Z,45.05
2023-01-04T22:06:18.407Z,46.09
2023-01-04T22:08:49.449Z,46.90
2023-01-04T22:11:19.941Z,47.33
2023-01-04T22:13:51.519Z,48.02
2023-01-04T22:16:21.819Z,48.78
2023-01-04T22:18:52.976Z,49.27
2023-01-04T22:21:27.908Z,50.19
2023-01-04T22:23:58.204Z,50.95
2023-01-04T22:26:28.743Z,51.52
2023-01-04T22:28:58.898Z,52.13
2023-01-04T22:31:29.187Z,52.06
2023-01-04T22:33:59.389Z,52.32
2023-01-04T22:36:29.645Z,53.41
2023-01-04T22:39:00.141Z,52.90
2023-01-04T22:41:31.564Z,53.54
2023-01-04T22:44:04.560Z,53.79
2023-01-04T22:46:36.872Z,54.03
2023-01-04T22:49:07.273Z,54.73
2023-01-04T22:51:37.451Z,55.11
2023-01-04T22:54:07.701Z,55.64
2023-01-04T22:56:38.057Z,56.02
2023-01-04T22:59:08.216Z,56.46
2023-01-04T23:01:38.679Z,56.80
2023-01-04T23:04:08.947Z,57.19
2023-01-04T23:06:39.142Z,57.74
2023-01-04T23:09:09.442Z,58.20
2023-01-04T23:11:40.570Z,58.56
2023-01-04T23:14:14.713Z,58.66
2023-01-04T23:16:46.310Z,59.04
2023-01-04T23:19:17.187Z,59.14
2023-01-04T23:21:47.589Z,59.32
2023-01-04T23:24:18.102Z,59.73
2023-01-04T23:26:48.430Z,60.02
2023-01-04T23:29:18.726Z,60.06
2023-01-04T23:31:49.145Z,60.44
2023-01-04T23:34:19.359Z,60.90
